createdAt,value
2022-08-04T00:04:53.756Z,16.81
2022-08-04T00:10:06.441Z,16.82
2022-08-04T00:15:15.102Z,16.86
2022-08-04T00:20:21.200Z,16.89
2022-08-04T00:25:24.692Z,16.96
2022-08-04T00:30:27.279Z,17.07
2022-08-04T00:35:29.745Z,17.16
2022-08-04T00:41:13.564Z,17.17
2022-08-04T00:46:42.162Z,17.15
2022-08-04T00:52:32.455Z,17.23
2022-08-04T00:57:34.141Z,17.17
2022-08-04T01:02:52.500Z,17.11
2022-08-04T01:08:11.199Z,17.12
2022-08-04T01:13:36.684Z,17.14
2022-08-04T01:19:25.129Z,17.13
2022-08-04T01:24:59.334Z,17.10
2022-08-04T01:30:02.735Z,17.09
2022-08-04T01:35:46.769Z,17.03
2022-08-04T01:40:54.033Z,16.96
2022-08-04T01:46:05.346Z,16.92
2022-08-04T01:51:09.890Z,16.77
2022-08-04T01:56:12.363Z,16.61
2022-08-04T02:01:14.498Z,16.58
2022-08-04T02:06:23.154Z,16.62
2022-08-04T02:11:26.508Z,16.68
2022-08-04T02:16:40.841Z,16.74
2022-08-04T02:21:49.255Z,16.70
2022-08-04T02:26:57.033Z,16.69
2022-08-04T02:32:10.277Z,16.75
2022-08-04T02:37:17.214Z,16.74
2022-08-04T02:42:19.895Z,16.65
2022-08-04T02:48:08.190Z,16.50
2022-08-04T02:52:52.888Z,16.46
2022-08-04T02:57:58.184Z,16.39
2022-08-04T03:03:00.531Z,16.23
2022-08-04T03:08:48.006Z,16.23
2022-08-04T03:14:11.262Z,16.12
2022-08-04T03:19:43.008Z,16.14
2022-08-04T03:24:55.868Z,16.20
2022-08-04T03:30:06.753Z,16.21
2022-08-04T03:35:52.882Z,16.21
2022-08-04T03:41:18.646Z,16.08
2022-08-04T03:46:56.271Z,16.14
2022-08-04T03:52:42.187Z,16.35
2022-08-04T03:58:21.815Z,16.68
2022-08-04T04:04:07.639Z,16.88
2022-08-04T04:09:23.147Z,17.07
2022-08-04T04:15:29.023Z,17.34
2022-08-04T04:20:59.747Z,17.93
2022-08-04T04:26:18.397Z,18.73
2022-08-04T04:31:39.418Z,19.27
2022-08-04T04:37:09.036Z,19.34
2022-08-04T04:42:27.887Z,19.60
2022-08-04T04:48:08.152Z,19.60
2022-08-04T04:53:29.657Z,20.15
2022-08-04T04:58:34.636Z,20.10
2022-08-04T05:03:49.930Z,20.05
2022-08-04T05:09:05.155Z,20.02
2022-08-04T05:14:38.594Z,20.01
2022-08-04T05:19:48.140Z,20.02
2022-08-04T05:25:01.505Z,20.94
2022-08-04T05:30:07.566Z,23.78
2022-08-04T05:35:16.741Z,25.91
2022-08-04T05:40:40.974Z,28.98
2022-08-04T05:45:48.655Z,30.72
2022-08-04T05:50:52.551Z,32.24
2022-08-04T05:55:58.759Z,32.49
2022-08-04T06:01:03.420Z,33.06
2022-08-04T06:06:07.617Z,34.00
2022-08-04T06:11:14.444Z,33.29
2022-08-04T06:16:28.543Z,31.80
2022-08-04T06:21:38.505Z,30.41
2022-08-04T06:26:42.758Z,29.50
2022-08-04T06:32:30.200Z,29.00
2022-08-04T06:37:12.191Z,28.59
2022-08-04T06:42:37.046Z,28.33
2022-08-04T06:47:42.341Z,28.05
2022-08-04T06:52:47.008Z,27.82
2022-08-04T06:57:49.975Z,27.94
2022-08-04T07:02:54.761Z,28.33
2022-08-04T07:07:59.667Z,29.24
2022-08-04T07:13:03.785Z,30.75
2022-08-04T07:18:05.824Z,31.97
2022-08-04T07:23:11.169Z,32.55
2022-08-04T07:28:14.035Z,32.84
2022-08-04T07:33:17.726Z,33.04
2022-08-04T07:38:21.258Z,33.15
2022-08-04T07:43:33.238Z,33.17
2022-08-04T07:48:35.826Z,33.33
2022-08-04T07:53:55.409Z,33.30
2022-08-04T07:59:00.946Z,33.36
2022-08-04T08:04:11.681Z,33.05
2022-08-04T08:09:17.165Z,32.96
2022-08-04T08:14:21.758Z,32.89
2022-08-04T08:19:24.637Z,32.92
2022-08-04T08:24:32.761Z,33.17
2022-08-04T08:29:38.334Z,33.22
2022-08-04T08:34:43.007Z,32.90
2022-08-04T08:39:58.666Z,32.89
2022-08-04T08:45:08.270Z,33.21
2022-08-04T08:50:34.012Z,33.43
2022-08-04T08:55:54.113Z,33.19
2022-08-04T09:01:06.397Z,32.84
2022-08-04T09:06:34.473Z,32.95
2022-08-04T09:11:57.689Z,33.05
2022-08-04T09:17:05.581Z,33.22
2022-08-04T09:22:21.402Z,32.55
2022-08-04T09:27:30.549Z,32.46
2022-08-04T09:32:42.234Z,32.62
2022-08-04T09:38:12.846Z,32.37
2022-08-04T09:43:57.166Z,32.13
2022-08-04T09:49:05.065Z,31.90
2022-08-04T09:54:39.367Z,32.31
2022-08-04T09:59:53.657Z,32.67
2022-08-04T10:04:59.872Z,32.45
2022-08-04T10:10:41.718Z,32.02
2022-08-04T10:16:17.421Z,31.94
2022-08-04T10:21:31.916Z,32.26
2022-08-04T10:26:58.158Z,32.63
2022-08-04T10:32:12.858Z,32.99
2022-08-04T10:37:58.910Z,32.83
2022-08-04T10:43:03.881Z,32.78
2022-08-04T10:48:34.225Z,32.98
2022-08-04T10:53:40.558Z,32.80
2022-08-04T10:58:49.881Z,32.68
2022-08-04T11:04:01.471Z,32.60
2022-08-04T11:09:06.406Z,32.78
2022-08-04T11:14:22.630Z,32.86
2022-08-04T11:20:18.157Z,32.76
2022-08-04T11:25:28.296Z,32.57
2022-08-04T11:30:37.985Z,32.40
2022-08-04T11:36:03.959Z,32.56
2022-08-04T11:41:12.399Z,32.52
2022-08-04T11:46:31.573Z,32.32
2022-08-04T11:51:37.106Z,32.08
2022-08-04T11:56:40.305Z,32.01
2022-08-04T12:02:02.522Z,32.13
2022-08-04T12:07:31.829Z,32.24
2022-08-04T12:12:52.140Z,32.21
2022-08-04T12:18:21.673Z,32.17
2022-08-04T12:23:36.581Z,32.24
2022-08-04T12:29:09.182Z,31.96
2022-08-04T12:34:13.651Z,32.08
2022-08-04T12:39:19.017Z,32.20
2022-08-04T12:44:38.045Z,32.24
2022-08-04T12:49:47.556Z,32.12
2022-08-04T12:55:05.613Z,32.00
2022-08-04T13:00:09.200Z,31.93
2022-08-04T13:05:17.160Z,31.98
2022-08-04T13:10:30.452Z,32.02
2022-08-04T13:15:47.296Z,32.07
2022-08-04T13:21:19.400Z,31.82
2022-08-04T13:26:43.251Z,31.73
2022-08-04T13:31:52.897Z,31.64
2022-08-04T13:36:58.156Z,31.71
2022-08-04T13:42:05.186Z,31.74
2022-08-04T13:47:14.795Z,31.67
2022-08-04T13:52:17.303Z,31.50
2022-08-04T13:57:27.434Z,31.56
2022-08-04T14:02:42.800Z,31.47
2022-08-04T14:07:54.869Z,31.38
2022-08-04T14:12:57.588Z,31.25
2022-08-04T14:18:23.403Z,31.18
2022-08-04T14:23:27.402Z,31.14
2022-08-04T14:29:24.957Z,31.14
2022-08-04T14:34:04.745Z,31.19
2022-08-04T14:39:12.534Z,31.22
2022-08-04T14:44:15.040Z,31.19
2022-08-04T14:49:17.410Z,31.10
2022-08-04T14:54:32.146Z,31.01
2022-08-04T15:00:00.599Z,30.90
2022-08-04T15:05:55.136Z,30.78
2022-08-04T15:10:27.553Z,30.58
2022-08-04T15:15:37.114Z,30.40
2022-08-04T15:20:42.376Z,30.41
2022-08-04T15:25:50.585Z,30.44
2022-08-04T15:30:54.433Z,30.41
2022-08-04T15:36:15.100Z,30.29
2022-08-04T15:41:31.955Z,30.29
2022-08-04T15:46:42.990Z,30.22
2022-08-04T15:51:47.702Z,30.12
2022-08-04T15:57:02.553Z,29.91
2022-08-04T16:02:33.402Z,29.73
2022-08-04T16:08:11.472Z,29.70
2022-08-04T16:13:18.461Z,29.54
2022-08-04T16:18:37.434Z,29.46
2022-08-04T16:23:55.172Z,29.38
2022-08-04T16:28:58.319Z,29.37
2022-08-04T16:34:04.426Z,29.27
2022-08-04T16:39:23.817Z,29.20
2022-08-04T16:44:51.728Z,29.06
2022-08-04T16:50:06.098Z,28.86
2022-08-04T16:55:09.920Z,28.64
2022-08-04T17:00:13.724Z,28.51
2022-08-04T17:05:38.315Z,28.34
2022-08-04T17:10:46.873Z,28.11
2022-08-04T17:15:51.697Z,27.92
2022-08-04T17:21:01.039Z,27.69
2022-08-04T17:26:39.863Z,27.57
2022-08-04T17:31:45.321Z,27.41
2022-08-04T17:36:49.387Z,27.24
2022-08-04T17:41:58.416Z,27.06
2022-08-04T17:47:20.755Z,26.88
2022-08-04T17:52:41.415Z,26.67
2022-08-04T17:58:13.271Z,26.43
2022-08-04T18:03:24.339Z,26.20
2022-08-04T18:08:37.826Z,25.96
2022-08-04T18:13:53.007Z,25.71
2022-08-04T18:19:15.241Z,25.55
2022-08-04T18:24:18.735Z,25.36
2022-08-04T18:29:38.968Z,25.17
2022-08-04T18:34:55.046Z,24.99
2022-08-04T18:40:09.754Z,24.78
2022-08-04T18:45:14.956Z,24.54
2022-08-04T18:51:00.122Z,24.37
2022-08-04T18:55:57.017Z,24.20
2022-08-04T19:01:01.684Z,24.03
2022-08-04T19:06:04.473Z,23.87
2022-08-04T19:11:38.517Z,23.73
2022-08-04T19:16:37.824Z,23.55
2022-08-04T19:21:59.524Z,23.35
2022-08-04T19:27:08.253Z,23.18
2022-08-04T19:32:14.651Z,23.01
2022-08-04T19:37:58.392Z,22.86
2022-08-04T19:42:46.156Z,22.74
2022-08-04T19:48:17.715Z,22.61
2022-08-04T19:53:20.022Z,22.47
2022-08-04T19:58:31.354Z,22.31
2022-08-04T20:04:09.923Z,22.17
2022-08-04T20:09:01.313Z,22.04
2022-08-04T20:14:03.757Z,21.92
2022-08-04T20:19:14.039Z,21.80
2022-08-04T20:24:39.429Z,21.69
2022-08-04T20:29:43.234Z,21.57
2022-08-04T20:34:51.933Z,21.47
2022-08-04T20:40:00.878Z,21.35
2022-08-04T20:45:03.879Z,21.24
2022-08-04T20:50:09.343Z,21.16
2022-08-04T20:55:13.875Z,21.10
2022-08-04T21:00:29.993Z,20.97
2022-08-04T21:05:34.408Z,20.85
2022-08-04T21:10:37.066Z,20.71
2022-08-04T21:15:57.938Z,20.61
2022-08-04T21:21:02.817Z,20.53
2022-08-04T21:26:06.094Z,20.42
2022-08-04T21:31:21.844Z,20.30
2022-08-04T21:36:27.576Z,20.17
2022-08-04T21:41:49.184Z,20.05
2022-08-04T21:46:57.704Z,19.95
2022-08-04T21:52:01.627Z,19.82
2022-08-04T21:57:11.195Z,19.73
2022-08-04T22:02:13.450Z,19.63
2022-08-04T22:07:16.781Z,19.47
2022-08-04T22:12:26.103Z,19.30
2022-08-04T22:17:35.535Z,19.18
2022-08-04T22:22:39.508Z,19.13
2022-08-04T22:28:01.442Z,19.08
2022-08-04T22:33:08.028Z,19.01
2022-08-04T22:38:21.279Z,18.93
2022-08-04T22:43:35.826Z,18.88
2022-08-04T22:48:43.102Z,18.86
2022-08-04T22:53:49.179Z,18.81
2022-08-04T22:58:52.610Z,18.76
2022-08-04T23:03:56.436Z,18.67
2022-08-04T23:08:59.511Z,18.58
2022-08-04T23:14:02.523Z,18.49
2022-08-04T23:19:09.545Z,18.44
2022-08-04T23:24:14.610Z,18.32
2022-08-04T23:29:16.779Z,18.22
2022-08-04T23:34:19.815Z,18.19
2022-08-04T23:39:21.993Z,18.17
2022-08-04T23:44:26.756Z,18.09
2022-08-04T23:49:43.812Z,17.84
2022-08-04T23:54:50.313Z,17.75
2022-08-04T23:59:54.249Z,17.71
